createdAt,value
2019-04-27T00:02:18.186Z,99785.09
2019-04-27T00:05:16.113Z,99786.59
2019-04-27T00:07:56.237Z,99788.25
2019-04-27T00:10:50.494Z,99786.80
2019-04-27T00:13:24.319Z,99785.19
2019-04-27T00:16:23.469Z,99774.69
2019-04-27T00:19:31.824Z,99776.76
2019-04-27T00:22:12.961Z,99770.50
2019-04-27T00:24:47.533Z,99774.31
2019-04-27T00:27:20.091Z,99770.68
2019-04-27T00:29:53.637Z,99767.91
2019-04-27T00:32:27.961Z,99767.44
2019-04-27T00:35:00.707Z,99764.78
2019-04-27T00:37:46.402Z,99759.66
2019-04-27T00:40:28.804Z,99753.06
2019-04-27T00:43:14.799Z,99750.52
2019-04-27T00:45:49.910Z,99748.55
2019-04-27T00:48:23.408Z,99746.59
2019-04-27T00:50:58.502Z,99748.18
2019-04-27T00:53:31.011Z,99749.14
2019-04-27T00:56:13.882Z,99745.39
2019-04-27T00:59:07.012Z,99748.89
2019-04-27T01:01:50.466Z,99743.38
2019-04-27T01:04:27.689Z,99742.00
2019-04-27T01:07:00.507Z,99748.89
2019-04-27T01:09:34.091Z,99741.70
2019-04-27T01:12:06.870Z,99730.91
2019-04-27T01:14:39.310Z,99729.79
2019-04-27T01:17:12.446Z,99722.59
2019-04-27T01:19:45.151Z,99725.13
2019-04-27T01:22:18.870Z,99722.42
2019-04-27T01:24:51.750Z,99717.53
2019-04-27T01:27:44.097Z,99711.38
2019-04-27T01:30:35.434Z,99708.28
2019-04-27T01:33:09.800Z,99703.77
2019-04-27T01:35:42.391Z,99708.55
2019-04-27T01:38:16.358Z,99705.85
2019-04-27T01:40:49.808Z,99704.73
2019-04-27T01:43:22.427Z,99704.28
2019-04-27T01:45:55.342Z,99702.82
2019-04-27T01:48:28.580Z,99706.75
2019-04-27T01:51:03.846Z,99701.35
2019-04-27T01:53:39.010Z,99698.54
2019-04-27T01:56:11.662Z,99703.52
2019-04-27T01:58:44.995Z,99699.62
2019-04-27T02:01:24.454Z,99701.86
2019-04-27T02:04:17.256Z,99699.67
2019-04-27T02:06:51.498Z,99696.14
2019-04-27T02:09:24.954Z,99695.47
2019-04-27T02:11:59.074Z,99693.26
2019-04-27T02:14:34.945Z,99690.52
2019-04-27T02:17:09.594Z,99686.36
2019-04-27T02:19:42.483Z,99683.66
2019-04-27T02:22:15.322Z,99677.71
2019-04-27T02:24:49.257Z,99673.88
2019-04-27T02:27:26.414Z,99679.56
2019-04-27T02:30:20.649Z,99672.66
2019-04-27T02:33:13.054Z,99672.67
2019-04-27T02:35:45.889Z,99671.95
2019-04-27T02:38:20.065Z,99664.97
2019-04-27T02:41:15.031Z,99661.23
2019-04-27T02:44:11.877Z,99657.47
2019-04-27T02:46:44.954Z,99649.69
2019-04-27T02:49:19.998Z,99652.22
2019-04-27T02:52:21.652Z,99650.92
2019-04-27T02:54:54.984Z,99642.44
2019-04-27T02:57:30.153Z,99643.77
2019-04-27T03:00:06.221Z,99650.80
2019-04-27T03:02:45.246Z,99646.64
2019-04-27T03:05:25.974Z,99647.08
2019-04-27T03:07:59.869Z,99649.13
2019-04-27T03:10:33.087Z,99649.55
2019-04-27T03:13:30.164Z,99649.48
2019-04-27T03:16:20.477Z,99643.69
2019-04-27T03:19:18.214Z,99638.13
2019-04-27T03:21:59.546Z,99632.40
2019-04-27T03:24:39.441Z,99628.01
2019-04-27T03:27:15.402Z,99628.30
2019-04-27T03:29:49.843Z,99623.77
2019-04-27T03:32:23.384Z,99625.03
2019-04-27T03:34:56.410Z,99619.94
2019-04-27T03:37:30.329Z,99615.14
2019-04-27T03:40:04.683Z,99616.70
2019-04-27T03:42:40.489Z,99615.27
2019-04-27T03:45:14.716Z,99610.04
2019-04-27T03:47:50.090Z,99609.84
2019-04-27T03:50:32.539Z,99600.81
2019-04-27T03:53:23.291Z,99595.19
2019-04-27T03:56:05.395Z,99591.89
2019-04-27T03:58:41.842Z,99590.19
2019-04-27T04:01:15.478Z,99584.66
2019-04-27T04:03:50.125Z,99579.86
2019-04-27T04:06:23.495Z,99580.93
2019-04-27T04:08:56.874Z,99575.98
2019-04-27T04:11:45.553Z,99578.09
2019-04-27T04:14:20.527Z,99577.17
2019-04-27T04:17:01.740Z,99578.84
2019-04-27T04:19:51.311Z,99572.73
2019-04-27T04:22:30.388Z,99563.98
2019-04-27T04:25:03.477Z,99567.52
2019-04-27T04:27:36.517Z,99566.20
2019-04-27T04:30:12.251Z,99556.70
2019-04-27T04:32:45.751Z,99558.78
2019-04-27T04:35:22.658Z,99555.04
2019-04-27T04:37:55.222Z,99552.32
2019-04-27T04:40:41.935Z,99546.20
2019-04-27T04:43:24.351Z,99550.61
2019-04-27T04:46:19.093Z,99554.38
2019-04-27T04:48:55.463Z,99564.17
2019-04-27T04:51:30.299Z,99557.83
2019-04-27T04:54:03.946Z,99571.90
2019-04-27T04:56:39.193Z,99574.67
2019-04-27T04:59:12.120Z,99577.00
2019-04-27T05:01:44.972Z,99572.27
2019-04-27T05:04:19.287Z,99568.44
2019-04-27T05:06:52.095Z,99572.08
2019-04-27T05:09:24.902Z,99572.20
2019-04-27T05:12:00.547Z,99573.39
2019-04-27T05:14:35.918Z,99578.97
2019-04-27T05:17:14.227Z,99572.58
2019-04-27T05:19:49.176Z,99577.10
2019-04-27T05:22:22.613Z,99578.77
2019-04-27T05:25:01.567Z,99585.14
2019-04-27T05:27:34.019Z,99578.95
2019-04-27T05:30:09.329Z,99576.80
2019-04-27T05:32:42.884Z,99571.81
2019-04-27T05:35:16.207Z,99569.95
2019-04-27T05:37:50.979Z,99570.41
2019-04-27T05:40:25.017Z,99568.05
2019-04-27T05:42:58.588Z,99568.27
2019-04-27T05:46:16.893Z,99569.09
2019-04-27T05:48:49.760Z,99567.70
2019-04-27T05:51:22.369Z,99561.73
2019-04-27T05:53:58.608Z,99561.14
2019-04-27T05:56:32.694Z,99556.63
2019-04-27T05:59:05.416Z,99563.44
2019-04-27T06:01:39.018Z,99564.16
2019-04-27T06:04:11.731Z,99555.52
2019-04-27T06:06:44.322Z,99553.63
2019-04-27T06:09:19.393Z,99554.30
2019-04-27T06:11:53.722Z,99550.23
2019-04-27T06:14:26.198Z,99556.08
2019-04-27T06:17:01.488Z,99551.61
2019-04-27T06:19:34.043Z,99550.16
2019-04-27T06:22:06.760Z,99545.02
2019-04-27T06:24:39.758Z,99550.36
2019-04-27T06:27:13.259Z,99545.33
2019-04-27T06:29:45.767Z,99546.20
2019-04-27T06:32:19.551Z,99546.86
2019-04-27T06:34:52.130Z,99545.61
2019-04-27T06:37:24.773Z,99553.50
2019-04-27T06:39:59.430Z,99544.11
2019-04-27T06:42:33.439Z,99545.42
2019-04-27T06:45:07.201Z,99542.14
2019-04-27T06:47:41.485Z,99541.73
2019-04-27T06:50:14.412Z,99541.79
2019-04-27T06:52:46.996Z,99540.45
2019-04-27T06:55:23.293Z,99536.03
2019-04-27T06:57:56.062Z,99533.41
2019-04-27T07:00:28.963Z,99535.20
2019-04-27T07:03:02.041Z,99537.06
2019-04-27T07:05:34.498Z,99532.27
2019-04-27T07:08:10.008Z,99534.67
2019-04-27T07:10:45.607Z,99532.92
2019-04-27T07:13:19.583Z,99534.52
2019-04-27T07:15:52.257Z,99538.63
2019-04-27T07:18:25.311Z,99528.36
2019-04-27T07:20:58.663Z,99534.18
2019-04-27T07:23:31.185Z,99538.41
2019-04-27T07:26:03.974Z,99537.02
2019-04-27T07:28:36.788Z,99536.45
2019-04-27T07:31:09.944Z,99536.76
2019-04-27T07:33:43.676Z,99534.33
2019-04-27T07:36:18.824Z,99535.64
2019-04-27T07:38:52.429Z,99530.66
2019-04-27T07:41:26.347Z,99532.12
2019-04-27T07:44:08.411Z,99529.45
2019-04-27T07:46:43.680Z,99531.38
2019-04-27T07:49:19.137Z,99529.16
2019-04-27T07:51:52.231Z,99530.30
2019-04-27T07:54:26.393Z,99524.93
2019-04-27T07:56:59.328Z,99523.61
2019-04-27T07:59:31.920Z,99517.48
2019-04-27T08:02:04.518Z,99510.30
2019-04-27T08:04:40.063Z,99512.53
2019-04-27T08:07:12.716Z,99513.03
2019-04-27T08:09:46.742Z,99515.65
2019-04-27T08:12:20.882Z,99514.33
2019-04-27T08:14:54.541Z,99513.66
2019-04-27T08:17:30.267Z,99517.05
2019-04-27T08:20:02.982Z,99508.59
2019-04-27T08:22:35.603Z,99509.92
2019-04-27T08:25:10.642Z,99509.80
2019-04-27T08:27:57.925Z,99506.05
2019-04-27T08:30:40.297Z,99505.70
2019-04-27T08:33:14.384Z,99505.58
2019-04-27T08:35:46.824Z,99505.58
2019-04-27T08:38:20.673Z,99501.17
2019-04-27T08:40:54.038Z,99501.57
2019-04-27T08:43:28.997Z,99503.25
2019-04-27T08:46:02.131Z,99499.09
2019-04-27T08:48:36.982Z,99507.16
2019-04-27T08:51:10.142Z,99499.23
2019-04-27T08:53:43.359Z,99499.56
2019-04-27T08:56:16.169Z,99501.20
2019-04-27T08:58:51.077Z,99501.74
2019-04-27T09:01:24.122Z,99490.50
2019-04-27T09:03:56.902Z,99491.63
2019-04-27T09:06:39.843Z,99494.78
2019-04-27T09:09:31.201Z,99486.16
2019-04-27T09:12:24.545Z,99484.63
2019-04-27T09:15:14.423Z,99482.39
2019-04-27T09:17:51.683Z,99481.31
2019-04-27T09:20:33.270Z,99470.47
2019-04-27T09:23:06.434Z,99465.25
2019-04-27T09:25:39.622Z,99478.47
2019-04-27T09:28:13.362Z,99474.15
2019-04-27T09:30:50.847Z,99472.69
2019-04-27T09:33:24.660Z,99465.50
2019-04-27T09:35:58.012Z,99461.55
2019-04-27T09:38:35.713Z,99446.08
2019-04-27T09:41:08.444Z,99447.86
2019-04-27T09:43:42.795Z,99443.56
2019-04-27T09:46:17.279Z,99439.16
2019-04-27T09:48:50.897Z,99434.63
2019-04-27T09:51:27.140Z,99437.31
2019-04-27T09:54:00.230Z,99455.05
2019-04-27T09:56:34.077Z,99464.84
2019-04-27T09:59:06.735Z,99478.64
2019-04-27T10:01:41.452Z,99487.16
2019-04-27T10:04:15.705Z,99512.52
2019-04-27T10:06:50.647Z,99525.12
2019-04-27T10:09:23.611Z,99518.47
2019-04-27T10:11:56.964Z,99522.81
2019-04-27T10:14:29.510Z,99523.65
2019-04-27T10:17:03.375Z,99520.17
2019-04-27T10:19:37.230Z,99529.50
2019-04-27T10:22:11.259Z,99523.57
2019-04-27T10:24:45.434Z,99526.30
2019-04-27T10:27:18.703Z,99524.77
2019-04-27T10:29:51.957Z,99521.67
2019-04-27T10:32:26.090Z,99529.98
2019-04-27T10:34:58.957Z,99531.33
2019-04-27T10:37:31.472Z,99525.17
2019-04-27T10:40:06.062Z,99532.42
2019-04-27T10:42:38.903Z,99532.41
2019-04-27T10:45:16.779Z,99533.23
2019-04-27T10:47:49.565Z,99527.70
2019-04-27T10:50:22.534Z,99532.93
2019-04-27T10:52:58.822Z,99530.96
2019-04-27T10:55:32.680Z,99522.98
2019-04-27T10:58:05.523Z,99527.66
2019-04-27T11:00:45.945Z,99534.33
2019-04-27T11:03:38.198Z,99534.20
2019-04-27T11:06:30.055Z,99531.58
2019-04-27T11:09:06.261Z,99536.74
2019-04-27T11:11:40.218Z,99537.44
2019-04-27T11:14:13.107Z,99535.72
2019-04-27T11:16:49.582Z,99541.50
2019-04-27T11:19:26.775Z,99548.66
2019-04-27T11:22:00.427Z,99554.64
2019-04-27T11:24:33.023Z,99560.33
2019-04-27T11:27:08.673Z,99563.03
2019-04-27T11:29:41.572Z,99562.01
2019-04-27T11:32:15.873Z,99567.92
2019-04-27T11:34:55.830Z,99571.06
2019-04-27T11:37:32.405Z,99572.63
2019-04-27T11:40:06.705Z,99572.00
2019-04-27T11:42:43.907Z,99574.48
2019-04-27T11:45:19.951Z,99572.61
2019-04-27T11:47:55.330Z,99574.67
2019-04-27T11:50:30.293Z,99567.51
2019-04-27T11:53:03.497Z,99571.75
2019-04-27T11:55:37.091Z,99570.80
2019-04-27T11:58:10.189Z,99571.23
2019-04-27T12:00:42.874Z,99576.66
2019-04-27T12:03:16.665Z,99590.39
2019-04-27T12:05:50.469Z,99580.27
2019-04-27T12:08:23.495Z,99591.50
2019-04-27T12:10:56.821Z,99580.05
2019-04-27T12:13:30.818Z,99578.59
2019-04-27T12:16:04.507Z,99562.60
2019-04-27T12:18:37.043Z,99545.94
2019-04-27T12:21:10.351Z,99557.59
2019-04-27T12:23:50.565Z,99553.83
2019-04-27T12:26:45.018Z,99549.62
2019-04-27T12:29:55.698Z,99548.34
2019-04-27T12:32:40.558Z,99545.76
2019-04-27T12:35:14.323Z,99544.27
2019-04-27T12:37:48.165Z,99543.64
2019-04-27T12:40:20.890Z,99530.00
2019-04-27T12:42:55.783Z,99528.27
2019-04-27T12:45:28.558Z,99529.19
2019-04-27T12:48:07.262Z,99533.96
2019-04-27T12:50:40.677Z,99529.45
2019-04-27T12:53:26.927Z,99533.66
2019-04-27T12:56:06.665Z,99533.05
2019-04-27T12:58:47.528Z,99523.00
2019-04-27T13:01:21.303Z,99510.59
2019-04-27T13:03:58.472Z,99515.79
2019-04-27T13:06:32.397Z,99516.39
2019-04-27T13:09:08.470Z,99514.66
2019-04-27T13:11:43.243Z,99522.14
2019-04-27T13:14:16.417Z,99510.91
2019-04-27T13:16:49.679Z,99507.83
2019-04-27T13:19:23.692Z,99508.95
2019-04-27T13:21:56.303Z,99509.73
2019-04-27T13:24:31.435Z,99498.77
2019-04-27T13:27:06.335Z,99501.92
2019-04-27T13:29:39.031Z,99511.36
2019-04-27T13:32:11.927Z,99509.97
2019-04-27T13:34:46.449Z,99507.01
2019-04-27T13:37:26.316Z,99500.22
2019-04-27T13:40:06.997Z,99502.60
2019-04-27T13:43:00.927Z,99506.84
2019-04-27T13:45:47.973Z,99509.92
2019-04-27T13:48:36.454Z,99502.98
2019-04-27T13:51:16.213Z,99495.86
2019-04-27T13:53:49.490Z,99494.70
2019-04-27T13:56:23.677Z,99489.66
2019-04-27T13:58:58.351Z,99489.36
2019-04-27T14:01:33.839Z,99482.31
2019-04-27T14:04:07.604Z,99485.23
2019-04-27T14:06:42.086Z,99484.98
2019-04-27T14:09:16.169Z,99490.70
2019-04-27T14:12:08.447Z,99490.19
2019-04-27T14:14:43.069Z,99490.36
2019-04-27T14:17:19.384Z,99486.59
2019-04-27T14:19:55.579Z,99496.34
2019-04-27T14:22:28.532Z,99500.17
2019-04-27T14:25:04.023Z,99501.93
2019-04-27T14:27:41.154Z,99488.61
2019-04-27T14:30:19.198Z,99494.88
2019-04-27T14:32:53.442Z,99493.20
2019-04-27T14:35:28.288Z,99502.57
2019-04-27T14:38:00.916Z,99488.94
2019-04-27T14:40:33.529Z,99490.39
2019-04-27T14:43:08.384Z,99482.34
2019-04-27T14:45:42.462Z,99488.34
2019-04-27T14:48:15.089Z,99478.34
2019-04-27T14:50:48.956Z,99473.36
2019-04-27T14:53:22.327Z,99474.41
2019-04-27T14:55:58.303Z,99473.05
2019-04-27T14:58:33.587Z,99464.98
2019-04-27T15:01:08.258Z,99460.02
2019-04-27T15:03:41.886Z,99463.30
2019-04-27T15:06:19.820Z,99458.22
2019-04-27T15:08:55.660Z,99469.73
2019-04-27T15:11:31.636Z,99470.10
2019-04-27T15:14:08.917Z,99459.66
2019-04-27T15:16:43.412Z,99464.94
2019-04-27T15:19:30.403Z,99464.70
2019-04-27T15:22:04.382Z,99481.20
2019-04-27T15:24:41.663Z,99515.81
2019-04-27T15:27:23.246Z,99508.10
2019-04-27T15:30:00.352Z,99506.83
2019-04-27T15:33:16.431Z,99511.53
2019-04-27T15:36:03.251Z,99518.30
2019-04-27T15:38:43.033Z,99519.77
2019-04-27T15:41:31.366Z,99526.94
2019-04-27T15:44:09.551Z,99514.86
2019-04-27T15:46:47.966Z,99522.66
2019-04-27T15:49:21.402Z,99515.76
2019-04-27T15:51:55.129Z,99518.09
2019-04-27T15:54:32.423Z,99521.13
2019-04-27T15:57:10.543Z,99519.22
2019-04-27T15:59:50.452Z,99527.19
2019-04-27T16:02:28.903Z,99539.25
2019-04-27T16:05:19.104Z,99525.23
2019-04-27T16:08:06.129Z,99540.16
2019-04-27T16:10:51.886Z,99544.92
2019-04-27T16:13:39.266Z,99551.36
2019-04-27T16:16:15.359Z,99553.44
2019-04-27T16:18:50.654Z,99557.11
2019-04-27T16:21:28.523Z,99560.19
2019-04-27T16:24:04.407Z,99561.85
2019-04-27T16:26:41.959Z,99572.98
2019-04-27T16:29:23.006Z,99585.13
2019-04-27T16:32:02.697Z,99583.37
2019-04-27T16:34:41.442Z,99589.59
2019-04-27T16:37:38.795Z,99601.80
2019-04-27T16:40:30.118Z,99607.71
2019-04-27T16:43:03.127Z,99613.16
2019-04-27T16:45:38.795Z,99630.45
2019-04-27T16:48:11.559Z,99625.18
2019-04-27T16:50:44.663Z,99638.41
2019-04-27T16:53:21.190Z,99614.27
2019-04-27T16:56:06.296Z,99620.17
2019-04-27T16:58:49.024Z,99628.30
2019-04-27T17:01:30.770Z,99621.49
2019-04-27T17:04:06.428Z,99629.42
2019-04-27T17:06:53.698Z,99625.94
2019-04-27T17:09:36.245Z,99620.50
2019-04-27T17:12:23.850Z,99622.33
2019-04-27T17:15:28.183Z,99625.02
2019-04-27T17:18:24.376Z,99631.91
2019-04-27T17:21:09.984Z,99628.35
2019-04-27T17:23:49.243Z,99636.42
2019-04-27T17:26:25.490Z,99630.50
2019-04-27T17:29:16.143Z,99635.13
2019-04-27T17:31:56.441Z,99636.00
2019-04-27T17:34:32.359Z,99638.81
2019-04-27T17:37:09.342Z,99646.79
2019-04-27T17:39:49.232Z,99651.77
2019-04-27T17:42:22.700Z,99656.02
2019-04-27T17:45:06.787Z,99653.67
2019-04-27T17:47:40.899Z,99659.19
2019-04-27T17:50:18.470Z,99663.16
2019-04-27T17:53:12.143Z,99661.34
2019-04-27T17:55:54.970Z,99667.63
2019-04-27T17:58:35.352Z,99665.66
2019-04-27T18:01:23.413Z,99667.48
2019-04-27T18:04:02.959Z,99670.47
2019-04-27T18:06:42.566Z,99675.31
2019-04-27T18:09:19.392Z,99673.64
2019-04-27T18:11:54.392Z,99679.14
2019-04-27T18:14:32.800Z,99684.62
2019-04-27T18:17:16.094Z,99688.47
2019-04-27T18:20:13.487Z,99690.84
2019-04-27T18:23:15.197Z,99697.00
2019-04-27T18:26:17.657Z,99695.08
2019-04-27T18:28:58.385Z,99695.11
2019-04-27T18:31:46.376Z,99716.91
2019-04-27T18:34:24.916Z,99748.65
2019-04-27T18:37:09.381Z,99755.03
2019-04-27T18:39:53.367Z,99765.13
2019-04-27T18:42:31.285Z,99769.47
2019-04-27T18:45:08.714Z,99782.09
2019-04-27T18:47:48.059Z,99780.06
2019-04-27T18:50:32.342Z,99785.42
2019-04-27T18:53:16.349Z,99785.52
2019-04-27T18:55:59.483Z,99791.53
2019-04-27T18:58:44.908Z,99792.53
2019-04-27T19:01:20.244Z,99798.27
2019-04-27T19:03:55.607Z,99786.91
2019-04-27T19:06:35.017Z,99788.45
2019-04-27T19:09:12.228Z,99793.03
2019-04-27T19:11:56.666Z,99797.22
2019-04-27T19:14:31.886Z,99795.72
2019-04-27T19:17:07.814Z,99794.58
2019-04-27T19:19:41.411Z,99793.02
2019-04-27T19:22:14.280Z,99797.77
2019-04-27T19:24:49.303Z,99802.52
2019-04-27T19:27:29.784Z,99803.56
2019-04-27T19:30:14.680Z,99806.97
2019-04-27T19:32:49.537Z,99809.45
2019-04-27T19:35:22.838Z,99814.78
2019-04-27T19:37:55.354Z,99809.59
2019-04-27T19:40:29.706Z,99813.45
2019-04-27T19:43:04.070Z,99815.38
2019-04-27T19:45:38.835Z,99818.06
2019-04-27T19:48:12.451Z,99821.81
2019-04-27T19:50:50.417Z,99818.93
2019-04-27T19:53:25.442Z,99818.92
2019-04-27T19:56:01.207Z,99824.55
2019-04-27T19:58:43.536Z,99824.20
2019-04-27T20:01:25.088Z,99824.14
2019-04-27T20:04:04.686Z,99822.06
2019-04-27T20:06:39.490Z,99826.68
2019-04-27T20:09:27.834Z,99823.13
2019-04-27T20:12:11.027Z,99821.42
2019-04-27T20:14:51.858Z,99828.05
2019-04-27T20:17:31.870Z,99833.82
2019-04-27T20:20:09.369Z,99835.91
2019-04-27T20:22:43.389Z,99838.79
2019-04-27T20:25:16.238Z,99840.61
2019-04-27T20:27:51.939Z,99839.78
2019-04-27T20:30:24.927Z,99842.77
2019-04-27T20:33:00.913Z,99842.66
2019-04-27T20:35:40.806Z,99848.23
2019-04-27T20:38:18.039Z,99848.78
2019-04-27T20:40:53.080Z,99845.56
2019-04-27T20:43:25.638Z,99849.19
2019-04-27T20:45:58.519Z,99849.56
2019-04-27T20:48:36.271Z,99845.97
2019-04-27T20:51:08.885Z,99852.97
2019-04-27T20:53:49.145Z,99849.33
2019-04-27T20:56:21.846Z,99847.96
2019-04-27T20:58:55.421Z,99849.06
2019-04-27T21:01:29.353Z,99846.78
2019-04-27T21:04:03.675Z,99847.05
2019-04-27T21:06:42.676Z,99849.09
2019-04-27T21:09:16.644Z,99852.78
2019-04-27T21:11:53.354Z,99854.53
2019-04-27T21:14:28.998Z,99854.99
2019-04-27T21:17:04.630Z,99857.46
2019-04-27T21:19:39.085Z,99858.95
2019-04-27T21:22:14.724Z,99858.50
2019-04-27T21:24:51.485Z,99857.19
2019-04-27T21:27:31.936Z,99856.25
2019-04-27T21:30:11.387Z,99860.06
2019-04-27T21:32:45.643Z,99860.84
2019-04-27T21:35:21.021Z,99860.84
2019-04-27T21:37:58.440Z,99859.36
2019-04-27T21:40:32.828Z,99861.47
2019-04-27T21:43:05.448Z,99862.73
2019-04-27T21:45:43.269Z,99860.58
2019-04-27T21:48:17.396Z,99861.34
2019-04-27T21:50:53.212Z,99863.92
2019-04-27T21:53:37.545Z,99863.17
2019-04-27T21:56:11.450Z,99869.13
2019-04-27T21:58:48.579Z,99871.06
2019-04-27T22:01:28.239Z,99871.87
2019-04-27T22:04:01.307Z,99873.76
2019-04-27T22:06:40.788Z,99877.56
2019-04-27T22:09:18.607Z,99882.04
2019-04-27T22:11:52.229Z,99879.96
2019-04-27T22:14:26.791Z,99882.19
2019-04-27T22:17:01.820Z,99886.66
2019-04-27T22:19:35.780Z,99888.53
2019-04-27T22:22:25.453Z,99889.58
2019-04-27T22:25:06.699Z,99891.48
2019-04-27T22:27:41.165Z,99891.26
2019-04-27T22:30:17.052Z,99896.31
2019-04-27T22:32:52.892Z,99899.80
2019-04-27T22:35:27.031Z,99901.20
2019-04-27T22:38:02.014Z,99896.55
2019-04-27T22:41:01.977Z,99902.99
2019-04-27T22:43:47.440Z,99906.14
2019-04-27T22:46:21.801Z,99906.58
2019-04-27T22:48:55.908Z,99905.09
2019-04-27T22:51:30.327Z,99905.38
2019-04-27T22:54:07.260Z,99907.80
2019-04-27T22:56:42.764Z,99911.01
2019-04-27T22:59:41.453Z,99909.55
2019-04-27T23:02:36.334Z,99911.08
2019-04-27T23:05:10.768Z,99906.68
2019-04-27T23:07:44.494Z,99908.33
2019-04-27T23:10:17.006Z,99910.15
2019-04-27T23:12:51.379Z,99905.99
2019-04-27T23:15:36.346Z,99908.77
2019-04-27T23:18:10.810Z,99912.02
2019-04-27T23:20:43.507Z,99909.14
2019-04-27T23:23:21.713Z,99908.30
2019-04-27T23:25:56.352Z,99910.12
2019-04-27T23:28:31.275Z,99910.84
2019-04-27T23:31:21.024Z,99906.41
2019-04-27T23:33:54.730Z,99917.37
2019-04-27T23:36:27.593Z,99913.12
2019-04-27T23:39:02.965Z,99919.45
2019-04-27T23:41:39.019Z,99918.54
2019-04-27T23:44:14.188Z,99918.55
2019-04-27T23:46:48.615Z,99918.88
2019-04-27T23:49:22.291Z,99918.31
2019-04-27T23:52:03.570Z,99916.67
2019-04-27T23:54:37.479Z,99916.70
2019-04-27T23:57:11.834Z,99915.89
2019-04-27T23:59:45.762Z,99915.64
